sensor_id;sensor_type;location;lat;lon;timestamp;P1;durP1;ratioP1;P2;durP2;ratioP2
47529;SDS011;33272;51.922;7.730;2022-11-20T00:01:29;22.97;;;14.67;;
47529;SDS011;33272;51.922;7.730;2022-11-20T00:03:56;20.07;;;13.77;;
47529;SDS011;33272;51.922;7.730;2022-11-20T00:06:24;19.50;;;13.67;;
47529;SDS011;33272;51.922;7.730;2022-11-20T00:08:55;25.07;;;14.70;;
47529;SDS011;33272;51.922;7.730;2022-11-20T00:11:25;19.43;;;13.47;;
47529;SDS011;33272;51.922;7.730;2022-11-20T00:13:55;21.13;;;14.13;;
47529;SDS011;33272;51.922;7.730;2022-11-20T00:16:25;20.90;;;13.73;;
47529;SDS011;33272;51.922;7.730;2022-11-20T00:18:53;19.53;;;13.30;;
47529;SDS011;33272;51.922;7.730;2022-11-20T00:21:21;19.13;;;13.70;;
47529;SDS011;33272;51.922;7.730;2022-11-20T00:23:50;19.63;;;13.40;;
47529;SDS011;33272;51.922;7.730;2022-11-20T00:26:21;20.77;;;13.47;;
47529;SDS011;33272;51.922;7.730;2022-11-20T00:28:51;19.83;;;13.67;;
47529;SDS011;33272;51.922;7.730;2022-11-20T00:31:20;20.73;;;13.17;;
47529;SDS011;33272;51.922;7.730;2022-11-20T00:33:47;18.97;;;12.60;;
47529;SDS011;33272;51.922;7.730;2022-11-20T00:36:15;19.23;;;13.20;;
47529;SDS011;33272;51.922;7.730;2022-11-20T00:38:44;20.73;;;13.47;;
47529;SDS011;33272;51.922;7.730;2022-11-20T00:41:12;19.17;;;12.30;;
47529;SDS011;33272;51.922;7.730;2022-11-20T00:43:43;21.67;;;12.77;;
47529;SDS011;33272;51.922;7.730;2022-11-20T00:46:10;16.60;;;12.00;;
47529;SDS011;33272;51.922;7.730;2022-11-20T00:48:40;19.50;;;12.40;;
47529;SDS011;33272;51.922;7.730;2022-11-20T00:51:08;21.70;;;13.13;;
47529;SDS011;33272;51.922;7.730;2022-11-20T00:53:37;22.10;;;14.67;;
47529;SDS011;33272;51.922;7.730;2022-11-20T00:56:05;23.13;;;13.77;;
47529;SDS011;33272;51.922;7.730;2022-11-20T00:58:35;21.33;;;14.90;;
47529;SDS011;33272;51.922;7.730;2022-11-20T01:01:06;22.60;;;14.77;;
47529;SDS011;33272;51.922;7.730;2022-11-20T01:03:36;21.63;;;13.27;;
47529;SDS011;33272;51.922;7.730;2022-11-20T01:06:07;21.80;;;13.77;;
47529;SDS011;33272;51.922;7.730;2022-11-20T01:08:38;20.37;;;13.70;;
47529;SDS011;33272;51.922;7.730;2022-11-20T01:11:06;20.40;;;14.10;;
47529;SDS011;33272;51.922;7.730;2022-11-20T01:13:36;20.40;;;14.07;;
47529;SDS011;33272;51.922;7.730;2022-11-20T01:16:04;20.30;;;14.10;;
47529;SDS011;33272;51.922;7.730;2022-11-20T01:18:35;21.23;;;13.17;;
47529;SDS011;33272;51.922;7.730;2022-11-20T01:21:05;20.43;;;13.03;;
47529;SDS011;33272;51.922;7.730;2022-11-20T01:23:36;20.67;;;14.27;;
47529;SDS011;33272;51.922;7.730;2022-11-20T01:26:06;17.93;;;12.83;;
47529;SDS011;33272;51.922;7.730;2022-11-20T01:28:34;17.37;;;13.77;;
47529;SDS011;33272;51.922;7.730;2022-11-20T01:31:02;20.43;;;13.43;;
47529;SDS011;33272;51.922;7.730;2022-11-20T01:33:40;22.83;;;13.07;;
47529;SDS011;33272;51.922;7.730;2022-11-20T01:36:08;19.23;;;12.67;;
47529;SDS011;33272;51.922;7.730;2022-11-20T01:38:35;19.53;;;13.23;;
47529;SDS011;33272;51.922;7.730;2022-11-20T01:41:03;20.43;;;13.17;;
47529;SDS011;33272;51.922;7.730;2022-11-20T01:43:31;20.80;;;13.13;;
47529;SDS011;33272;51.922;7.730;2022-11-20T01:45:59;17.50;;;12.87;;
47529;SDS011;33272;51.922;7.730;2022-11-20T01:48:43;19.70;;;13.17;;
47529;SDS011;33272;51.922;7.730;2022-11-20T01:51:22;19.93;;;13.27;;
47529;SDS011;33272;51.922;7.730;2022-11-20T01:53:55;18.60;;;12.80;;
47529;SDS011;33272;51.922;7.730;2022-11-20T01:56:27;25.23;;;14.87;;
47529;SDS011;33272;51.922;7.730;2022-11-20T01:58:58;21.03;;;13.30;;
47529;SDS011;33272;51.922;7.730;2022-11-20T02:01:29;24.07;;;14.43;;
47529;SDS011;33272;51.922;7.730;2022-11-20T02:03:56;25.80;;;14.67;;
47529;SDS011;33272;51.922;7.730;2022-11-20T02:06:25;23.20;;;14.50;;
47529;SDS011;33272;51.922;7.730;2022-11-20T02:08:56;25.37;;;14.80;;
47529;SDS011;33272;51.922;7.730;2022-11-20T02:11:24;24.87;;;14.60;;
47529;SDS011;33272;51.922;7.730;2022-11-20T02:13:53;23.43;;;15.17;;
47529;SDS011;33272;51.922;7.730;2022-11-20T02:16:21;23.63;;;15.70;;
47529;SDS011;33272;51.922;7.730;2022-11-20T02:18:53;22.17;;;14.33;;
47529;SDS011;33272;51.922;7.730;2022-11-20T02:21:30;20.03;;;13.30;;
47529;SDS011;33272;51.922;7.730;2022-11-20T02:24:05;20.47;;;13.77;;
47529;SDS011;33272;51.922;7.730;2022-11-20T02:26:38;20.10;;;12.47;;
47529;SDS011;33272;51.922;7.730;2022-11-20T02:29:16;22.17;;;14.37;;
47529;SDS011;33272;51.922;7.730;2022-11-20T02:31:50;20.17;;;13.00;;
47529;SDS011;33272;51.922;7.730;2022-11-20T02:34:20;20.37;;;13.50;;
47529;SDS011;33272;51.922;7.730;2022-11-20T02:36:47;19.73;;;13.30;;
47529;SDS011;33272;51.922;7.730;2022-11-20T02:39:17;21.70;;;13.87;;
47529;SDS011;33272;51.922;7.730;2022-11-20T02:41:46;20.03;;;13.10;;
47529;SDS011;33272;51.922;7.730;2022-11-20T02:44:13;19.13;;;13.60;;
47529;SDS011;33272;51.922;7.730;2022-11-20T02:46:40;16.97;;;11.70;;
47529;SDS011;33272;51.922;7.730;2022-11-20T02:49:07;19.13;;;12.90;;
47529;SDS011;33272;51.922;7.730;2022-11-20T02:51:34;19.77;;;12.83;;
47529;SDS011;33272;51.922;7.730;2022-11-20T02:54:01;17.13;;;11.63;;
47529;SDS011;33272;51.922;7.730;2022-11-20T02:56:30;19.20;;;12.50;;
47529;SDS011;33272;51.922;7.730;2022-11-20T02:58:57;19.77;;;11.10;;
47529;SDS011;33272;51.922;7.730;2022-11-20T03:01:24;22.70;;;12.87;;
47529;SDS011;33272;51.922;7.730;2022-11-20T03:03:51;18.43;;;12.80;;
47529;SDS011;33272;51.922;7.730;2022-11-20T03:06:19;17.73;;;11.20;;
47529;SDS011;33272;51.922;7.730;2022-11-20T03:08:46;17.73;;;11.83;;
47529;SDS011;33272;51.922;7.730;2022-11-20T03:11:14;24.13;;;13.33;;
47529;SDS011;33272;51.922;7.730;2022-11-20T03:13:43;20.63;;;13.23;;
47529;SDS011;33272;51.922;7.730;2022-11-20T03:16:10;16.03;;;11.60;;
47529;SDS011;33272;51.922;7.730;2022-11-20T03:18:39;20.70;;;11.80;;
47529;SDS011;33272;51.922;7.730;2022-11-20T03:21:07;21.47;;;14.70;;
47529;SDS011;33272;51.922;7.730;2022-11-20T03:23:35;21.83;;;13.67;;
47529;SDS011;33272;51.922;7.730;2022-11-20T03:26:10;20.30;;;12.17;;
47529;SDS011;33272;51.922;7.730;2022-11-20T03:28:40;19.53;;;12.83;;
47529;SDS011;33272;51.922;7.730;2022-11-20T03:31:13;20.30;;;13.20;;
47529;SDS011;33272;51.922;7.730;2022-11-20T03:33:42;21.17;;;12.43;;
47529;SDS011;33272;51.922;7.730;2022-11-20T03:36:10;17.93;;;11.97;;
47529;SDS011;33272;51.922;7.730;2022-11-20T03:38:39;19.50;;;11.97;;
47529;SDS011;33272;51.922;7.730;2022-11-20T03:41:08;17.60;;;11.87;;
47529;SDS011;33272;51.922;7.730;2022-11-20T03:43:37;17.60;;;12.13;;
47529;SDS011;33272;51.922;7.730;2022-11-20T03:46:06;19.97;;;11.70;;
47529;SDS011;33272;51.922;7.730;2022-11-20T03:48:34;15.07;;;11.37;;
47529;SDS011;33272;51.922;7.730;2022-11-20T03:51:08;17.93;;;12.30;;
47529;SDS011;33272;51.922;7.730;2022-11-20T03:53:36;16.37;;;11.50;;
47529;SDS011;33272;51.922;7.730;2022-11-20T03:56:03;18.47;;;12.50;;
47529;SDS011;33272;51.922;7.730;2022-11-20T03:58:32;17.03;;;11.43;;
47529;SDS011;33272;51.922;7.730;2022-11-20T04:01:04;19.23;;;11.77;;
47529;SDS011;33272;51.922;7.730;2022-11-20T04:03:33;17.60;;;11.73;;
47529;SDS011;33272;51.922;7.730;2022-11-20T04:06:02;20.97;;;11.77;;
47529;SDS011;33272;51.922;7.730;2022-11-20T04:08:31;17.33;;;11.67;;
47529;SDS011;33272;51.922;7.730;2022-11-20T04:11:07;17.03;;;11.03;;
47529;SDS011;33272;51.922;7.730;2022-11-20T04:13:36;15.13;;;10.77;;
47529;SDS011;33272;51.922;7.730;2022-11-20T04:16:04;20.47;;;11.37;;
47529;SDS011;33272;51.922;7.730;2022-11-20T04:18:33;15.87;;;10.63;;
47529;SDS011;33272;51.922;7.730;2022-11-20T04:21:00;17.53;;;10.43;;
47529;SDS011;33272;51.922;7.730;2022-11-20T04:23:28;15.90;;;11.40;;
47529;SDS011;33272;51.922;7.730;2022-11-20T04:26:00;17.07;;;10.97;;
47529;SDS011;33272;51.922;7.730;2022-11-20T04:28:28;15.30;;;10.37;;
47529;SDS011;33272;51.922;7.730;2022-11-20T04:31:01;16.23;;;10.77;;
47529;SDS011;33272;51.922;7.730;2022-11-20T04:33:30;13.63;;;10.10;;
47529;SDS011;33272;51.922;7.730;2022-11-20T04:36:00;16.77;;;10.47;;
47529;SDS011;33272;51.922;7.730;2022-11-20T04:38:29;20.10;;;11.47;;
47529;SDS011;33272;51.922;7.730;2022-11-20T04:40:57;16.33;;;10.50;;
47529;SDS011;33272;51.922;7.730;2022-11-20T04:43:25;16.67;;;10.63;;
47529;SDS011;33272;51.922;7.730;2022-11-20T04:45:52;16.07;;;10.30;;
47529;SDS011;33272;51.922;7.730;2022-11-20T04:48:19;13.93;;;10.20;;
47529;SDS011;33272;51.922;7.730;2022-11-20T04:50:46;14.33;;;10.20;;
47529;SDS011;33272;51.922;7.730;2022-11-20T04:53:15;13.90;;;10.80;;
47529;SDS011;33272;51.922;7.730;2022-11-20T04:55:41;16.33;;;11.03;;
47529;SDS011;33272;51.922;7.730;2022-11-20T04:58:08;17.33;;;10.93;;
47529;SDS011;33272;51.922;7.730;2022-11-20T05:00:35;12.47;;;10.00;;
47529;SDS011;33272;51.922;7.730;2022-11-20T05:03:04;16.00;;;10.83;;
47529;SDS011;33272;51.922;7.730;2022-11-20T05:05:32;18.90;;;11.73;;
47529;SDS011;33272;51.922;7.730;2022-11-20T05:08:00;18.47;;;12.53;;
47529;SDS011;33272;51.922;7.730;2022-11-20T05:10:28;16.47;;;10.97;;
47529;SDS011;33272;51.922;7.730;2022-11-20T05:12:56;16.70;;;10.93;;
47529;SDS011;33272;51.922;7.730;2022-11-20T05:15:23;18.30;;;11.90;;
47529;SDS011;33272;51.922;7.730;2022-11-20T05:17:51;15.27;;;10.80;;
47529;SDS011;33272;51.922;7.730;2022-11-20T05:20:19;14.40;;;10.13;;
47529;SDS011;33272;51.922;7.730;2022-11-20T05:22:46;14.47;;;11.03;;
47529;SDS011;33272;51.922;7.730;2022-11-20T05:25:13;16.47;;;11.70;;
47529;SDS011;33272;51.922;7.730;2022-11-20T05:27:42;17.23;;;11.77;;
47529;SDS011;33272;51.922;7.730;2022-11-20T05:30:09;16.27;;;11.00;;
47529;SDS011;33272;51.922;7.730;2022-11-20T05:32:38;13.27;;;10.63;;
47529;SDS011;33272;51.922;7.730;2022-11-20T05:35:05;15.03;;;11.23;;
47529;SDS011;33272;51.922;7.730;2022-11-20T05:37:33;14.50;;;10.80;;
47529;SDS011;33272;51.922;7.730;2022-11-20T05:40:00;14.10;;;10.47;;
47529;SDS011;33272;51.922;7.730;2022-11-20T05:42:29;14.53;;;11.03;;
47529;SDS011;33272;51.922;7.730;2022-11-20T05:44:58;17.93;;;12.53;;
47529;SDS011;33272;51.922;7.730;2022-11-20T05:47:28;19.47;;;12.47;;
47529;SDS011;33272;51.922;7.730;2022-11-20T05:49:58;15.67;;;11.83;;
47529;SDS011;33272;51.922;7.730;2022-11-20T05:52:27;17.40;;;11.87;;
47529;SDS011;33272;51.922;7.730;2022-11-20T05:54:55;17.57;;;12.90;;
47529;SDS011;33272;51.922;7.730;2022-11-20T05:57:22;14.90;;;12.70;;
47529;SDS011;33272;51.922;7.730;2022-11-20T05:59:49;19.73;;;13.40;;
47529;SDS011;33272;51.922;7.730;2022-11-20T06:02:18;18.83;;;13.23;;
47529;SDS011;33272;51.922;7.730;2022-11-20T06:04:45;19.20;;;13.77;;
47529;SDS011;33272;51.922;7.730;2022-11-20T06:07:12;18.60;;;14.07;;
47529;SDS011;33272;51.922;7.730;2022-11-20T06:09:39;15.40;;;12.33;;
47529;SDS011;33272;51.922;7.730;2022-11-20T06:12:06;17.67;;;13.07;;
47529;SDS011;33272;51.922;7.730;2022-11-20T06:14:33;17.87;;;12.53;;
47529;SDS011;33272;51.922;7.730;2022-11-20T06:17:00;18.40;;;12.37;;
47529;SDS011;33272;51.922;7.730;2022-11-20T06:19:29;18.73;;;12.53;;
47529;SDS011;33272;51.922;7.730;2022-11-20T06:21:56;16.43;;;12.70;;
47529;SDS011;33272;51.922;7.730;2022-11-20T06:24:23;17.20;;;12.10;;
47529;SDS011;33272;51.922;7.730;2022-11-20T06:26:50;16.00;;;11.50;;
47529;SDS011;33272;51.922;7.730;2022-11-20T06:29:17;18.97;;;12.83;;
47529;SDS011;33272;51.922;7.730;2022-11-20T06:31:44;16.40;;;12.33;;
47529;SDS011;33272;51.922;7.730;2022-11-20T06:34:11;17.83;;;12.30;;
47529;SDS011;33272;51.922;7.730;2022-11-20T06:36:39;18.17;;;12.50;;
47529;SDS011;33272;51.922;7.730;2022-11-20T06:39:06;17.40;;;12.43;;
47529;SDS011;33272;51.922;7.730;2022-11-20T06:41:34;17.67;;;12.00;;
47529;SDS011;33272;51.922;7.730;2022-11-20T06:44:01;14.87;;;12.30;;
47529;SDS011;33272;51.922;7.730;2022-11-20T06:46:30;16.90;;;12.77;;
47529;SDS011;33272;51.922;7.730;2022-11-20T06:48:57;15.83;;;11.70;;
47529;SDS011;33272;51.922;7.730;2022-11-20T06:51:24;16.53;;;11.97;;
47529;SDS011;33272;51.922;7.730;2022-11-20T06:53:52;17.50;;;12.50;;
47529;SDS011;33272;51.922;7.730;2022-11-20T06:56:19;15.17;;;12.53;;
47529;SDS011;33272;51.922;7.730;2022-11-20T06:58:46;21.07;;;12.77;;
47529;SDS011;33272;51.922;7.730;2022-11-20T07:01:14;17.77;;;12.67;;
47529;SDS011;33272;51.922;7.730;2022-11-20T07:03:41;25.30;;;16.83;;
47529;SDS011;33272;51.922;7.730;2022-11-20T07:06:09;25.83;;;17.57;;
47529;SDS011;33272;51.922;7.730;2022-11-20T07:08:36;33.57;;;19.67;;
47529;SDS011;33272;51.922;7.730;2022-11-20T07:11:05;32.37;;;19.97;;
47529;SDS011;33272;51.922;7.730;2022-11-20T07:13:33;34.53;;;22.17;;
47529;SDS011;33272;51.922;7.730;2022-11-20T07:16:01;31.80;;;19.63;;
47529;SDS011;33272;51.922;7.730;2022-11-20T07:18:30;25.50;;;17.30;;
47529;SDS011;33272;51.922;7.730;2022-11-20T07:20:59;30.00;;;18.73;;
47529;SDS011;33272;51.922;7.730;2022-11-20T07:23:27;29.30;;;19.53;;
47529;SDS011;33272;51.922;7.730;2022-11-20T07:25:54;28.50;;;17.30;;
47529;SDS011;33272;51.922;7.730;2022-11-20T07:28:22;28.07;;;17.10;;
47529;SDS011;33272;51.922;7.730;2022-11-20T07:30:49;27.70;;;17.07;;
47529;SDS011;33272;51.922;7.730;2022-11-20T07:33:18;27.47;;;17.43;;
47529;SDS011;33272;51.922;7.730;2022-11-20T07:35:45;27.13;;;18.10;;
47529;SDS011;33272;51.922;7.730;2022-11-20T07:38:12;26.13;;;17.50;;
47529;SDS011;33272;51.922;7.730;2022-11-20T07:40:39;29.03;;;17.77;;
47529;SDS011;33272;51.922;7.730;2022-11-20T07:43:06;27.70;;;17.70;;
47529;SDS011;33272;51.922;7.730;2022-11-20T07:45:35;24.50;;;17.03;;
47529;SDS011;33272;51.922;7.730;2022-11-20T07:48:02;24.17;;;16.47;;
47529;SDS011;33272;51.922;7.730;2022-11-20T07:50:30;23.43;;;15.73;;
47529;SDS011;33272;51.922;7.730;2022-11-20T07:53:00;24.17;;;17.07;;
47529;SDS011;33272;51.922;7.730;2022-11-20T07:55:29;22.67;;;15.83;;
47529;SDS011;33272;51.922;7.730;2022-11-20T07:57:57;25.93;;;16.57;;
47529;SDS011;33272;51.922;7.730;2022-11-20T08:00:24;25.93;;;16.57;;
47529;SDS011;33272;51.922;7.730;2022-11-20T08:02:54;25.40;;;16.67;;
47529;SDS011;33272;51.922;7.730;2022-11-20T08:05:21;26.50;;;17.43;;
47529;SDS011;33272;51.922;7.730;2022-11-20T08:07:48;24.40;;;17.23;;
47529;SDS011;33272;51.922;7.730;2022-11-20T08:10:15;24.40;;;16.30;;
47529;SDS011;33272;51.922;7.730;2022-11-20T08:12:46;28.17;;;15.70;;
47529;SDS011;33272;51.922;7.730;2022-11-20T08:15:32;27.97;;;17.13;;
47529;SDS011;33272;51.922;7.730;2022-11-20T08:18:02;26.53;;;17.43;;
47529;SDS011;33272;51.922;7.730;2022-11-20T08:20:32;29.47;;;18.07;;
47529;SDS011;33272;51.922;7.730;2022-11-20T08:23:00;27.03;;;18.17;;
47529;SDS011;33272;51.922;7.730;2022-11-20T08:25:28;25.10;;;16.70;;
47529;SDS011;33272;51.922;7.730;2022-11-20T08:27:59;22.17;;;15.37;;
47529;SDS011;33272;51.922;7.730;2022-11-20T08:30:28;24.57;;;16.20;;
47529;SDS011;33272;51.922;7.730;2022-11-20T08:32:59;25.87;;;20.47;;
47529;SDS011;33272;51.922;7.730;2022-11-20T08:35:32;32.40;;;27.93;;
47529;SDS011;33272;51.922;7.730;2022-11-20T08:38:00;23.33;;;17.27;;
47529;SDS011;33272;51.922;7.730;2022-11-20T08:40:28;33.53;;;26.43;;
47529;SDS011;33272;51.922;7.730;2022-11-20T08:42:55;24.30;;;17.80;;
47529;SDS011;33272;51.922;7.730;2022-11-20T08:45:22;19.73;;;15.33;;
47529;SDS011;33272;51.922;7.730;2022-11-20T08:47:49;18.30;;;14.20;;
47529;SDS011;33272;51.922;7.730;2022-11-20T08:50:17;20.40;;;17.27;;
47529;SDS011;33272;51.922;7.730;2022-11-20T08:52:44;18.93;;;14.57;;
47529;SDS011;33272;51.922;7.730;2022-11-20T08:55:11;19.43;;;14.17;;
47529;SDS011;33272;51.922;7.730;2022-11-20T08:57:38;17.70;;;13.80;;
47529;SDS011;33272;51.922;7.730;2022-11-20T09:00:09;18.90;;;14.07;;
47529;SDS011;33272;51.922;7.730;2022-11-20T09:02:38;18.13;;;14.17;;
47529;SDS011;33272;51.922;7.730;2022-11-20T09:05:05;17.70;;;13.80;;
47529;SDS011;33272;51.922;7.730;2022-11-20T09:07:34;18.17;;;14.20;;
47529;SDS011;33272;51.922;7.730;2022-11-20T09:10:01;20.23;;;14.57;;
47529;SDS011;33272;51.922;7.730;2022-11-20T09:12:28;18.30;;;13.93;;
47529;SDS011;33272;51.922;7.730;2022-11-20T09:14:55;17.80;;;14.47;;
47529;SDS011;33272;51.922;7.730;2022-11-20T09:17:22;18.37;;;14.90;;
47529;SDS011;33272;51.922;7.730;2022-11-20T09:19:49;20.80;;;15.57;;
47529;SDS011;33272;51.922;7.730;2022-11-20T09:22:16;18.90;;;14.70;;
47529;SDS011;33272;51.922;7.730;2022-11-20T09:24:44;19.53;;;14.40;;
47529;SDS011;33272;51.922;7.730;2022-11-20T09:27:11;18.73;;;16.00;;
47529;SDS011;33272;51.922;7.730;2022-11-20T09:29:39;19.77;;;15.57;;
47529;SDS011;33272;51.922;7.730;2022-11-20T09:32:06;20.07;;;15.10;;
47529;SDS011;33272;51.922;7.730;2022-11-20T09:34:33;19.20;;;14.60;;
47529;SDS011;33272;51.922;7.730;2022-11-20T09:37:00;18.03;;;14.13;;
47529;SDS011;33272;51.922;7.730;2022-11-20T09:39:27;20.37;;;14.73;;
47529;SDS011;33272;51.922;7.730;2022-11-20T09:45:06;20.20;;;15.93;;
47529;SDS011;33272;51.922;7.730;2022-11-20T09:47:51;19.53;;;14.03;;
47529;SDS011;33272;51.922;7.730;2022-11-20T09:50:45;19.70;;;15.03;;
47529;SDS011;33272;51.922;7.730;2022-11-20T09:53:20;19.27;;;14.93;;
47529;SDS011;33272;51.922;7.730;2022-11-20T09:55:56;18.53;;;14.80;;
47529;SDS011;33272;51.922;7.730;2022-11-20T09:58:27;19.33;;;16.13;;
47529;SDS011;33272;51.922;7.730;2022-11-20T10:01:00;20.93;;;15.93;;
47529;SDS011;33272;51.922;7.730;2022-11-20T10:03:38;19.53;;;15.80;;
47529;SDS011;33272;51.922;7.730;2022-11-20T10:06:17;20.47;;;16.30;;
47529;SDS011;33272;51.922;7.730;2022-11-20T10:08:51;19.67;;;15.60;;
47529;SDS011;33272;51.922;7.730;2022-11-20T10:11:30;19.40;;;16.13;;
47529;SDS011;33272;51.922;7.730;2022-11-20T10:14:16;18.83;;;15.20;;
47529;SDS011;33272;51.922;7.730;2022-11-20T10:16:54;21.13;;;16.77;;
47529;SDS011;33272;51.922;7.730;2022-11-20T10:19:42;20.60;;;15.70;;
47529;SDS011;33272;51.922;7.730;2022-11-20T10:22:30;20.37;;;16.33;;
47529;SDS011;33272;51.922;7.730;2022-11-20T10:25:13;22.87;;;17.47;;
47529;SDS011;33272;51.922;7.730;2022-11-20T10:27:49;23.70;;;17.23;;
47529;SDS011;33272;51.922;7.730;2022-11-20T10:30:48;22.50;;;17.33;;
47529;SDS011;33272;51.922;7.730;2022-11-20T10:33:24;21.77;;;16.50;;
47529;SDS011;33272;51.922;7.730;2022-11-20T10:35:58;24.77;;;18.23;;
47529;SDS011;33272;51.922;7.730;2022-11-20T10:38:36;22.53;;;17.17;;
47529;SDS011;33272;51.922;7.730;2022-11-20T10:41:07;28.03;;;17.83;;
47529;SDS011;33272;51.922;7.730;2022-11-20T10:43:52;23.10;;;18.03;;
47529;SDS011;33272;51.922;7.730;2022-11-20T10:49:50;23.53;;;17.70;;
47529;SDS011;33272;51.922;7.730;2022-11-20T10:52:23;24.00;;;17.50;;
47529;SDS011;33272;51.922;7.730;2022-11-20T10:55:01;22.33;;;16.80;;
47529;SDS011;33272;51.922;7.730;2022-11-20T10:57:46;21.13;;;16.33;;
47529;SDS011;33272;51.922;7.730;2022-11-20T11:00:22;23.57;;;17.87;;
47529;SDS011;33272;51.922;7.730;2022-11-20T11:02:51;21.07;;;16.23;;
47529;SDS011;33272;51.922;7.730;2022-11-20T11:05:25;21.40;;;17.07;;
47529;SDS011;33272;51.922;7.730;2022-11-20T11:08:02;22.23;;;17.03;;
47529;SDS011;33272;51.922;7.730;2022-11-20T11:10:32;19.03;;;15.27;;
47529;SDS011;33272;51.922;7.730;2022-11-20T11:13:07;21.20;;;16.33;;
47529;SDS011;33272;51.922;7.730;2022-11-20T11:15:44;20.17;;;16.87;;
47529;SDS011;33272;51.922;7.730;2022-11-20T11:18:22;19.93;;;16.57;;
47529;SDS011;33272;51.922;7.730;2022-11-20T11:20:51;19.27;;;16.03;;
47529;SDS011;33272;51.922;7.730;2022-11-20T11:23:28;20.93;;;16.00;;
47529;SDS011;33272;51.922;7.730;2022-11-20T11:25:59;18.20;;;14.50;;
47529;SDS011;33272;51.922;7.730;2022-11-20T11:28:28;21.23;;;15.87;;
47529;SDS011;33272;51.922;7.730;2022-11-20T11:30:55;22.23;;;17.30;;
47529;SDS011;33272;51.922;7.730;2022-11-20T11:33:25;20.00;;;16.33;;
47529;SDS011;33272;51.922;7.730;2022-11-20T11:35:54;21.23;;;15.90;;
47529;SDS011;33272;51.922;7.730;2022-11-20T11:38:27;18.80;;;14.73;;
47529;SDS011;33272;51.922;7.730;2022-11-20T11:41:02;19.17;;;14.37;;
47529;SDS011;33272;51.922;7.730;2022-11-20T11:43:32;18.80;;;14.20;;
47529;SDS011;33272;51.922;7.730;2022-11-20T11:46:25;15.23;;;12.47;;
47529;SDS011;33272;51.922;7.730;2022-11-20T11:48:58;13.97;;;10.90;;
47529;SDS011;33272;51.922;7.730;2022-11-20T11:51:29;12.03;;;10.10;;
47529;SDS011;33272;51.922;7.730;2022-11-20T11:54:05;10.03;;;8.60;;
47529;SDS011;33272;51.922;7.730;2022-11-20T11:56:44;10.67;;;8.57;;
47529;SDS011;33272;51.922;7.730;2022-11-20T11:59:12;11.47;;;9.40;;
47529;SDS011;33272;51.922;7.730;2022-11-20T12:01:49;11.87;;;9.63;;
47529;SDS011;33272;51.922;7.730;2022-11-20T12:04:23;11.50;;;8.87;;
47529;SDS011;33272;51.922;7.730;2022-11-20T12:07:07;8.77;;;7.87;;
47529;SDS011;33272;51.922;7.730;2022-11-20T12:09:42;9.70;;;7.50;;
47529;SDS011;33272;51.922;7.730;2022-11-20T12:12:16;9.17;;;7.33;;
47529;SDS011;33272;51.922;7.730;2022-11-20T12:14:48;7.73;;;6.90;;
47529;SDS011;33272;51.922;7.730;2022-11-20T12:17:19;8.23;;;7.27;;
47529;SDS011;33272;51.922;7.730;2022-11-20T12:19:47;7.20;;;6.43;;
47529;SDS011;33272;51.922;7.730;2022-11-20T12:22:18;6.70;;;6.00;;
47529;SDS011;33272;51.922;7.730;2022-11-20T12:24:57;8.00;;;7.20;;
47529;SDS011;33272;51.922;7.730;2022-11-20T12:27:39;7.60;;;6.10;;
47529;SDS011;33272;51.922;7.730;2022-11-20T12:30:29;7.23;;;5.77;;
47529;SDS011;33272;51.922;7.730;2022-11-20T12:33:04;8.47;;;6.57;;
47529;SDS011;33272;51.922;7.730;2022-11-20T12:35:51;8.33;;;6.77;;
47529;SDS011;33272;51.922;7.730;2022-11-20T12:38:37;8.60;;;6.37;;
47529;SDS011;33272;51.922;7.730;2022-11-20T12:41:21;9.37;;;7.13;;
47529;SDS011;33272;51.922;7.730;2022-11-20T12:44:25;10.77;;;8.03;;
47529;SDS011;33272;51.922;7.730;2022-11-20T12:47:28;9.60;;;8.37;;
47529;SDS011;33272;51.922;7.730;2022-11-20T12:50:06;15.50;;;12.53;;
47529;SDS011;33272;51.922;7.730;2022-11-20T12:52:44;11.70;;;8.33;;
47529;SDS011;33272;51.922;7.730;2022-11-20T12:55:25;10.63;;;9.20;;
47529;SDS011;33272;51.922;7.730;2022-11-20T12:58:09;11.43;;;9.43;;
47529;SDS011;33272;51.922;7.730;2022-11-20T13:00:43;11.87;;;10.10;;
47529;SDS011;33272;51.922;7.730;2022-11-20T13:03:42;13.13;;;10.43;;
47529;SDS011;33272;51.922;7.730;2022-11-20T13:06:17;12.70;;;10.00;;
47529;SDS011;33272;51.922;7.730;2022-11-20T13:08:47;15.37;;;11.77;;
47529;SDS011;33272;51.922;7.730;2022-11-20T13:11:21;14.53;;;12.43;;
47529;SDS011;33272;51.922;7.730;2022-11-20T13:14:01;14.50;;;12.63;;
47529;SDS011;33272;51.922;7.730;2022-11-20T13:16:40;17.47;;;13.80;;
47529;SDS011;33272;51.922;7.730;2022-11-20T13:19:15;15.63;;;12.30;;
47529;SDS011;33272;51.922;7.730;2022-11-20T13:21:44;17.60;;;13.67;;
47529;SDS011;33272;51.922;7.730;2022-11-20T13:24:23;22.03;;;18.03;;
47529;SDS011;33272;51.922;7.730;2022-11-20T13:27:02;21.80;;;16.83;;
47529;SDS011;33272;51.922;7.730;2022-11-20T13:29:45;19.37;;;14.13;;
47529;SDS011;33272;51.922;7.730;2022-11-20T13:32:24;18.53;;;14.60;;
47529;SDS011;33272;51.922;7.730;2022-11-20T13:34:57;19.07;;;14.97;;
47529;SDS011;33272;51.922;7.730;2022-11-20T13:37:27;17.10;;;13.70;;
47529;SDS011;33272;51.922;7.730;2022-11-20T13:40:10;21.83;;;15.77;;
47529;SDS011;33272;51.922;7.730;2022-11-20T13:42:51;20.23;;;14.97;;
47529;SDS011;33272;51.922;7.730;2022-11-20T13:45:23;18.43;;;15.20;;
47529;SDS011;33272;51.922;7.730;2022-11-20T13:47:53;19.70;;;15.73;;
47529;SDS011;33272;51.922;7.730;2022-11-20T13:50:27;18.60;;;14.77;;
47529;SDS011;33272;51.922;7.730;2022-11-20T13:53:13;19.60;;;16.13;;
47529;SDS011;33272;51.922;7.730;2022-11-20T13:56:01;19.83;;;15.70;;
47529;SDS011;33272;51.922;7.730;2022-11-20T13:58:40;21.23;;;15.73;;
47529;SDS011;33272;51.922;7.730;2022-11-20T14:01:19;24.40;;;16.37;;
47529;SDS011;33272;51.922;7.730;2022-11-20T14:03:49;18.93;;;16.27;;
47529;SDS011;33272;51.922;7.730;2022-11-20T14:06:20;22.47;;;16.27;;
47529;SDS011;33272;51.922;7.730;2022-11-20T14:08:53;22.70;;;17.20;;
47529;SDS011;33272;51.922;7.730;2022-11-20T14:11:23;21.27;;;15.97;;
47529;SDS011;33272;51.922;7.730;2022-11-20T14:13:54;23.07;;;16.97;;
47529;SDS011;33272;51.922;7.730;2022-11-20T14:16:25;21.20;;;16.93;;
47529;SDS011;33272;51.922;7.730;2022-11-20T14:18:55;21.23;;;16.37;;
47529;SDS011;33272;51.922;7.730;2022-11-20T14:21:24;22.73;;;16.80;;
47529;SDS011;33272;51.922;7.730;2022-11-20T14:23:52;23.30;;;17.33;;
47529;SDS011;33272;51.922;7.730;2022-11-20T14:26:30;19.47;;;15.63;;
47529;SDS011;33272;51.922;7.730;2022-11-20T14:28:58;20.53;;;16.57;;
47529;SDS011;33272;51.922;7.730;2022-11-20T14:31:26;24.23;;;17.43;;
47529;SDS011;33272;51.922;7.730;2022-11-20T14:33:54;22.00;;;16.87;;
47529;SDS011;33272;51.922;7.730;2022-11-20T14:36:23;22.90;;;16.93;;
47529;SDS011;33272;51.922;7.730;2022-11-20T14:38:51;21.17;;;16.50;;
47529;SDS011;33272;51.922;7.730;2022-11-20T14:41:20;22.40;;;17.07;;
47529;SDS011;33272;51.922;7.730;2022-11-20T14:43:52;22.27;;;16.33;;
47529;SDS011;33272;51.922;7.730;2022-11-20T14:46:22;24.93;;;19.17;;
47529;SDS011;33272;51.922;7.730;2022-11-20T14:48:51;22.17;;;16.63;;
47529;SDS011;33272;51.922;7.730;2022-11-20T14:51:26;22.27;;;17.23;;
47529;SDS011;33272;51.922;7.730;2022-11-20T14:54:07;21.63;;;16.27;;